Time;durP1;ratioP1;P1;durP2;ratioP2;P2;SDS_P1;SDS_P2;PMS_P1;PMS_P2;Temp;Humidity;BMP_temperature;BMP_pressure;BME280_temperature;BME280_humidity;BME280_pressure;Samples;Min_cycle;Max_cycle;Signal;HPM_P1;HPM_P2
2023/08/16 14:45:58;;;;;;;2.60;1.50;;;29.60;92.50;;;;;;4843014;28;20568;-66
2023/08/16 14:48:24;;;;;;;1.30;1.30;;;29.60;93.20;;;;;;4970305;28;20533;-65
2023/08/16 14:50:49;;;;;;;1.20;1.13;;;29.70;92.40;;;;;;4973401;28;20214;-65
2023/08/16 14:53:15;;;;;;;0.80;0.80;;;29.80;91.40;;;;;;4953796;28;20262;-66
2023/08/16 14:55:41;;;;;;;1.27;1.20;;;29.80;91.60;;;;;;4951151;28;20194;-66
2023/08/16 14:58:07;;;;;;;1.73;1.30;;;29.90;91.70;;;;;;4973566;28;20186;-66
2023/08/16 15:00:33;;;;;;;4.50;1.63;;;30.00;91.30;;;;;;4965568;28;20199;-65
2023/08/16 15:02:59;;;;;;;2.63;1.33;;;30.10;91.20;;;;;;4964792;28;20418;-65
2023/08/16 15:05:25;;;;;;;1.23;1.17;;;30.20;90.80;;;;;;4963720;28;20174;-65
2023/08/16 15:07:53;;;;;;;1.20;1.10;;;30.30;91.40;;;;;;4963032;28;20465;-65
2023/08/16 15:10:19;;;;;;;1.57;1.30;;;30.30;91.20;;;;;;4963948;28;20826;-65
2023/08/16 15:12:45;;;;;;;3.30;1.60;;;30.40;91.20;;;;;;4962040;28;20521;-65
2023/08/16 15:15:12;;;;;;;1.50;1.40;;;30.40;90.90;;;;;;4967454;28;20425;-66
2023/08/16 15:17:38;;;;;;;1.10;1.00;;;30.40;89.90;;;;;;4945015;28;20190;-66
2023/08/16 15:20:05;;;;;;;3.33;1.60;;;30.30;90.20;;;;;;4964762;28;20426;-66
2023/08/16 15:22:30;;;;;;;1.60;1.40;;;30.30;90.30;;;;;;4967468;28;20193;-66
2023/08/16 15:24:56;;;;;;;1.13;1.03;;;30.20;90.70;;;;;;4969112;28;20421;-65
2023/08/16 15:27:21;;;;;;;0.90;0.90;;;30.00;90.20;;;;;;4968033;28;20249;-66
2023/08/16 15:29:47;;;;;;;3.10;1.60;;;29.80;90.40;;;;;;4968633;28;20880;-65
2023/08/16 15:32:16;;;;;;;1.20;1.10;;;29.50;90.80;;;;;;4964281;28;20276;-66
2023/08/16 15:34:42;;;;;;;1.57;1.47;;;29.40;92.70;;;;;;4965400;28;20607;-66
2023/08/16 15:37:08;;;;;;;4.37;2.13;;;29.40;92.30;;;;;;4970093;28;20414;-66
2023/08/16 15:39:33;;;;;;;1.60;1.50;;;29.50;92.80;;;;;;4954041;28;20441;-66
2023/08/16 15:41:59;;;;;;;1.90;1.40;;;29.70;91.80;;;;;;4961579;28;20572;-66
2023/08/16 15:44:24;;;;;;;2.25;1.77;;;29.80;91.60;;;;;;4926828;28;1271311;-66
2023/08/16 15:46:50;;;;;;;1.13;1.03;;;29.90;91.70;;;;;;4968996;28;20225;-66
2023/08/16 15:49:16;;;;;;;0.97;0.87;;;30.00;91.20;;;;;;4948537;28;20710;-66
2023/08/16 15:51:41;;;;;;;4.13;2.20;;;30.10;91.30;;;;;;4952428;28;20233;-66
2023/08/16 15:54:07;;;;;;;1.43;1.20;;;30.20;90.40;;;;;;4970013;28;20201;-65
2023/08/16 15:56:33;;;;;;;2.37;1.67;;;30.20;89.80;;;;;;4968541;28;20203;-66
2023/08/16 15:58:59;;;;;;;1.93;1.43;;;30.10;89.80;;;;;;4970056;28;20261;-66
2023/08/16 16:01:24;;;;;;;2.07;1.93;;;30.10;89.80;;;;;;4952449;28;20246;-66
2023/08/16 16:03:50;;;;;;;1.33;1.23;;;30.10;89.70;;;;;;4952574;28;20970;-66
2023/08/16 16:06:16;;;;;;;1.90;1.80;;;30.20;89.60;;;;;;4969465;28;20831;-66
2023/08/16 16:08:41;;;;;;;1.20;1.10;;;30.20;89.70;;;;;;4969134;28;20186;-66
2023/08/16 16:11:07;;;;;;;1.17;1.07;;;30.20;88.80;;;;;;4952782;28;20190;-65
2023/08/16 16:13:48;;;;;;;1.20;1.20;;;30.20;89.10;;;;;;4966766;28;20217;-66
2023/08/16 16:16:13;;;;;;;4.43;2.20;;;30.20;88.70;;;;;;4968756;28;20657;-66
2023/08/16 16:18:39;;;;;;;2.17;1.60;;;30.20;88.90;;;;;;4949255;28;20993;-66
2023/08/16 16:21:04;;;;;;;3.60;1.47;;;30.20;89.20;;;;;;4962982;28;20558;-66
2023/08/16 16:23:33;;;;;;;2.00;1.60;;;30.20;89.20;;;;;;4970733;28;20782;-66
2023/08/16 16:25:58;;;;;;;2.63;1.20;;;30.20;89.30;;;;;;4969630;28;20205;-66
2023/08/16 16:28:24;;;;;;;1.60;1.30;;;30.10;89.00;;;;;;4964453;28;20415;-66
2023/08/16 16:30:50;;;;;;;1.53;1.30;;;30.00;89.60;;;;;;4951019;28;20222;-64
2023/08/16 16:33:18;;;;;;;1.23;1.13;;;29.90;89.70;;;;;;4967567;28;20846;-64
2023/08/16 16:35:44;;;;;;;1.30;1.20;;;29.80;90.00;;;;;;4949146;28;20178;-65
2023/08/16 16:38:09;;;;;;;2.23;1.40;;;29.80;89.90;;;;;;4949398;28;20775;-64
2023/08/16 16:40:35;;;;;;;1.43;1.33;;;29.90;89.80;;;;;;4965971;28;20207;-64
2023/08/16 16:43:00;;;;;;;1.63;1.50;;;29.90;90.20;;;;;;4966561;28;20234;-64
2023/08/16 16:45:26;;;;;;;1.10;1.00;;;29.90;89.90;;;;;;4961500;28;20230;-65
2023/08/16 16:47:52;;;;;;;1.03;1.03;;;29.90;89.00;;;;;;4969646;28;20209;-65
2023/08/16 16:50:17;;;;;;;1.40;1.30;;;29.90;89.40;;;;;;4970043;28;20183;-65
2023/08/16 16:52:43;;;;;;;2.80;2.63;;;29.80;89.30;;;;;;4968089;28;20298;-65
2023/08/16 16:55:08;;;;;;;0.90;0.83;;;29.80;89.20;;;;;;4970084;28;20627;-65
2023/08/16 16:57:34;;;;;;;2.93;1.47;;;29.80;89.50;;;;;;4968556;28;20189;-65
2023/08/16 17:00:00;;;;;;;2.70;1.30;;;29.70;89.50;;;;;;4970188;28;20178;-65
2023/08/16 17:02:26;;;;;;;1.43;1.27;;;29.60;89.90;;;;;;4968193;28;20732;-65
2023/08/16 17:04:52;;;;;;;4.77;1.40;;;29.50;90.00;;;;;;4953134;28;20671;-66
2023/08/16 17:07:17;;;;;;;1.30;1.20;;;29.40;90.10;;;;;;4969897;28;20496;-66
2023/08/16 17:09:43;;;;;;;1.17;1.00;;;29.20;90.40;;;;;;4968894;28;20186;-65
2023/08/16 17:12:10;;;;;;;1.90;1.67;;;29.10;90.70;;;;;;4957714;28;20697;-65
2023/08/16 17:14:35;;;;;;;2.03;1.47;;;28.80;90.70;;;;;;4950805;28;20852;-65
2023/08/16 17:17:01;;;;;;;3.33;1.57;;;28.60;91.40;;;;;;4969891;28;20434;-65
2023/08/16 17:19:26;;;;;;;3.90;2.20;;;28.50;91.90;;;;;;4970113;28;20190;-65
2023/08/16 17:21:52;;;;;;;2.40;1.70;;;28.30;92.30;;;;;;4951238;28;20861;-65
2023/08/16 17:24:18;;;;;;;1.67;1.57;;;28.10;92.40;;;;;;4967900;28;20182;-65
2023/08/16 17:26:43;;;;;;;1.70;1.60;;;28.00;92.90;;;;;;4951716;28;20802;-65
2023/08/16 17:29:09;;;;;;;2.17;1.90;;;27.90;93.00;;;;;;4967159;28;20565;-65
2023/08/16 17:31:36;;;;;;;1.90;1.83;;;27.80;93.40;;;;;;4969793;28;20672;-65
2023/08/16 17:34:02;;;;;;;5.57;2.10;;;27.70;93.30;;;;;;4964763;28;20175;-65
2023/08/16 17:36:28;;;;;;;7.50;1.70;;;27.60;93.70;;;;;;4965852;28;20813;-65
2023/08/16 17:38:53;;;;;;;1.20;1.10;;;27.50;93.90;;;;;;4969955;28;20425;-66
2023/08/16 17:41:20;;;;;;;1.83;1.70;;;27.40;94.20;;;;;;4969519;28;20214;-66
2023/08/16 17:43:49;;;;;;;1.73;1.43;;;27.40;94.30;;;;;;4969369;28;20241;-65
2023/08/16 17:46:15;;;;;;;2.90;1.50;;;27.30;94.90;;;;;;4968860;28;20536;-65
2023/08/16 17:48:41;;;;;;;1.70;1.60;;;27.30;94.90;;;;;;4969476;28;20926;-66
2023/08/16 17:51:07;;;;;;;1.23;1.17;;;27.20;94.60;;;;;;4970268;28;20682;-65
2023/08/16 17:53:32;;;;;;;1.20;1.10;;;27.20;94.90;;;;;;4969056;28;20429;-65
2023/08/16 17:55:58;;;;;;;2.50;1.63;;;27.10;94.90;;;;;;4952753;28;20195;-65
2023/08/16 17:58:23;;;;;;;1.57;1.53;;;27.10;94.80;;;;;;4952113;28;20186;-65
2023/08/16 18:00:54;;;;;;;1.33;1.23;;;27.10;95.20;;;;;;4970328;28;20214;-65
2023/08/16 18:03:20;;;;;;;2.77;2.20;;;27.00;95.40;;;;;;4968720;28;20185;-65
2023/08/16 18:05:45;;;;;;;2.37;1.47;;;27.00;95.70;;;;;;4965841;28;20421;-65
2023/08/16 18:08:11;;;;;;;1.40;1.10;;;26.90;95.70;;;;;;4969707;28;20214;-65
2023/08/16 18:10:37;;;;;;;3.03;1.73;;;26.80;95.60;;;;;;4969856;28;20753;-65
2023/08/16 18:13:02;;;;;;;1.70;1.60;;;26.80;96.20;;;;;;4952701;28;20174;-65
2023/08/16 18:15:28;;;;;;;2.23;1.30;;;26.70;96.70;;;;;;4970055;28;20182;-65
2023/08/16 18:17:54;;;;;;;1.20;1.10;;;26.60;96.90;;;;;;4952101;28;20714;-65
2023/08/16 18:20:19;;;;;;;1.87;1.63;;;26.60;97.00;;;;;;4969755;28;20194;-65
2023/08/16 18:22:45;;;;;;;1.17;1.07;;;26.50;97.30;;;;;;4965769;28;20277;-65
2023/08/16 18:25:11;;;;;;;5.80;1.20;;;26.40;97.30;;;;;;4952269;28;20185;-65
2023/08/16 18:27:38;;;;;;;1.53;1.40;;;26.30;97.30;;;;;;4969875;28;20202;-65
2023/08/16 18:30:05;;;;;;;2.37;1.70;;;26.30;97.30;;;;;;4969614;28;20214;-65
2023/08/16 18:32:30;;;;;;;1.97;1.87;;;26.10;97.30;;;;;;4967809;28;20414;-65
2023/08/16 18:34:56;;;;;;;3.33;1.40;;;26.10;97.30;;;;;;4952268;28;20424;-65
2023/08/16 18:37:21;;;;;;;1.67;1.60;;;26.00;97.30;;;;;;4967552;28;20658;-65
2023/08/16 18:39:47;;;;;;;1.43;1.20;;;25.90;97.30;;;;;;4951911;28;20208;-65
2023/08/16 18:42:12;;;;;;;4.67;1.60;;;25.90;97.30;;;;;;4950990;28;20401;-65
2023/08/16 18:44:39;;;;;;;1.30;1.07;;;25.80;97.30;;;;;;4970694;28;20674;-65
2023/08/16 18:47:05;;;;;;;2.30;1.20;;;25.70;97.30;;;;;;4972616;28;20268;-64
2023/08/16 18:49:31;;;;;;;1.67;1.40;;;25.60;97.30;;;;;;4971316;28;20446;-64
2023/08/16 18:51:57;;;;;;;2.47;1.63;;;25.50;97.30;;;;;;4972196;28;20477;-65
2023/08/16 18:54:22;;;;;;;2.50;2.30;;;25.50;97.30;;;;;;4954776;28;20560;-64
2023/08/16 18:56:48;;;;;;;3.00;1.73;;;25.40;97.30;;;;;;4955167;28;20662;-63
2023/08/16 18:59:14;;;;;;;3.63;1.50;;;25.30;97.30;;;;;;4969436;28;20584;-64
2023/08/16 19:01:40;;;;;;;1.73;1.57;;;25.20;97.30;;;;;;4954804;28;20206;-64
2023/08/16 19:04:05;;;;;;;1.20;1.10;;;25.20;97.30;;;;;;4971882;28;20509;-64
2023/08/16 19:06:33;;;;;;;1.70;1.53;;;25.10;97.30;;;;;;4971702;28;20202;-64
2023/08/16 19:08:59;;;;;;;2.77;1.37;;;25.00;97.30;;;;;;4971192;28;20236;-66
2023/08/16 19:11:24;;;;;;;1.30;1.20;;;24.90;97.30;;;;;;4972384;28;20445;-65
2023/08/16 19:13:50;;;;;;;3.30;1.83;;;24.80;97.30;;;;;;4972119;28;20178;-64
2023/08/16 19:16:15;;;;;;;1.83;1.73;;;24.80;97.30;;;;;;4950505;28;20260;-64
2023/08/16 19:18:42;;;;;;;2.30;1.53;;;24.70;97.30;;;;;;4963086;28;20211;-64
2023/08/16 19:21:08;;;;;;;1.60;1.50;;;24.70;97.30;;;;;;4972152;28;20281;-64
2023/08/16 19:23:34;;;;;;;2.03;1.77;;;24.60;97.30;;;;;;4963400;28;20587;-64
2023/08/16 19:26:00;;;;;;;4.60;1.83;;;24.60;97.30;;;;;;4962411;28;20663;-63
2023/08/16 19:28:26;;;;;;;2.50;1.70;;;24.50;97.30;;;;;;4970218;28;20653;-64
2023/08/16 19:30:55;;;;;;;2.40;1.93;;;24.50;97.30;;;;;;4963759;28;20504;-64
2023/08/16 19:33:21;;;;;;;2.50;2.30;;;24.40;97.30;;;;;;4967530;28;20189;-64
2023/08/16 19:35:48;;;;;;;1.73;1.60;;;24.30;97.30;;;;;;4971738;28;20453;-64
2023/08/16 19:38:13;;;;;;;1.73;1.30;;;24.30;97.30;;;;;;4971409;28;20426;-64
2023/08/16 19:40:39;;;;;;;2.70;2.27;;;24.20;97.30;;;;;;4971810;28;20503;-64
2023/08/16 19:43:04;;;;;;;2.20;1.30;;;24.20;97.30;;;;;;4971665;28;20186;-64
2023/08/16 19:45:30;;;;;;;3.37;1.83;;;24.20;97.30;;;;;;4971286;28;20715;-67
2023/08/16 19:47:56;;;;;;;1.70;1.60;;;24.10;97.30;;;;;;4972095;28;20254;-66
2023/08/16 19:50:22;;;;;;;0.93;0.90;;;24.00;97.30;;;;;;4971115;28;20171;-66
2023/08/16 19:52:50;;;;;;;3.47;1.67;;;24.00;97.30;;;;;;4963738;28;20257;-66
2023/08/16 19:55:16;;;;;;;1.83;1.40;;;23.90;97.30;;;;;;4968734;28;20849;-66
2023/08/16 19:57:42;;;;;;;1.70;1.43;;;23.90;97.30;;;;;;4953933;28;20422;-66
2023/08/16 20:00:11;;;;;;;2.70;2.20;;;23.90;97.30;;;;;;4969433;28;20186;-66
2023/08/16 20:02:38;;;;;;;2.17;2.00;;;23.80;97.30;;;;;;4971425;28;20390;-66
2023/08/16 20:05:04;;;;;;;2.40;1.93;;;23.80;97.30;;;;;;4970731;28;20417;-66
2023/08/16 20:07:30;;;;;;;1.47;1.37;;;23.80;97.30;;;;;;4953825;28;20515;-66
2023/08/16 20:09:56;;;;;;;1.43;1.33;;;23.70;97.30;;;;;;4969281;28;20179;-66
2023/08/16 20:12:21;;;;;;;1.57;1.50;;;23.70;97.30;;;;;;4970818;28;20197;-66
2023/08/16 20:14:47;;;;;;;2.23;2.03;;;23.70;97.30;;;;;;4970334;28;20430;-66
2023/08/16 20:17:13;;;;;;;2.23;1.70;;;23.60;97.30;;;;;;4971316;28;20526;-66
2023/08/16 20:19:38;;;;;;;1.50;1.20;;;23.60;97.30;;;;;;4953180;28;20245;-66
2023/08/16 20:22:05;;;;;;;1.53;1.43;;;23.60;97.30;;;;;;4970810;28;20249;-66
2023/08/16 20:24:31;;;;;;;1.97;1.70;;;23.60;97.30;;;;;;4963415;28;20190;-66
2023/08/16 20:26:57;;;;;;;3.43;1.87;;;23.60;97.30;;;;;;4970949;28;20457;-66
2023/08/16 20:29:23;;;;;;;2.07;1.93;;;23.60;97.30;;;;;;4970740;28;20414;-67
2023/08/16 20:31:48;;;;;;;2.30;1.57;;;23.60;97.30;;;;;;4970477;28;20210;-66
2023/08/16 20:34:19;;;;;;;2.97;1.50;;;23.60;97.30;;;;;;4970797;28;20278;-66
2023/08/16 20:36:44;;;;;;;1.63;1.60;;;23.60;97.30;;;;;;4970946;28;20182;-67
2023/08/16 20:39:10;;;;;;;1.40;1.30;;;23.50;97.30;;;;;;4970958;28;20429;-66
2023/08/16 20:41:36;;;;;;;3.83;1.63;;;23.50;97.30;;;;;;4953491;28;20209;-66
2023/08/16 20:44:02;;;;;;;2.30;2.10;;;23.50;97.30;;;;;;4970903;28;20185;-66
2023/08/16 20:46:37;;;;;;;7.00;2.90;;;23.50;97.30;;;;;;4970730;28;20354;-66
2023/08/16 20:49:08;;;;;;;3.17;2.30;;;23.40;97.30;;;;;;4970825;28;20604;-66
2023/08/16 20:51:35;;;;;;;9.50;1.93;;;23.40;97.30;;;;;;4966419;28;21149;-66
2023/08/16 20:54:00;;;;;;;1.70;1.30;;;23.40;97.30;;;;;;4970650;28;20804;-65
2023/08/16 20:56:26;;;;;;;1.67;1.60;;;23.40;97.30;;;;;;4970561;28;20505;-66
2023/08/16 20:58:51;;;;;;;1.20;1.10;;;23.40;97.30;;;;;;4985399;23;20264;-88
2023/08/16 21:01:17;;;;;;;4.50;2.03;;;23.30;97.30;;;;;;4967884;28;20190;-89
2023/08/16 21:03:42;;;;;;;1.70;1.33;;;23.30;97.30;;;;;;4964944;28;20185;-88
2023/08/16 21:06:08;;;;;;;2.27;2.07;;;23.30;97.30;;;;;;4966450;28;20174;-88
2023/08/16 21:08:33;;;;;;;2.00;1.83;;;23.30;97.30;;;;;;4974342;28;20626;-89
2023/08/16 21:10:59;;;;;;;3.23;2.63;;;23.20;97.30;;;;;;4972573;28;20189;-88
2023/08/16 21:13:24;;;;;;;1.40;1.30;;;23.20;97.30;;;;;;4969306;28;20182;-89
2023/08/16 21:15:50;;;;;;;2.40;2.20;;;23.20;97.30;;;;;;4973910;28;20682;-88
2023/08/16 21:18:15;;;;;;;1.57;1.57;;;23.20;97.30;;;;;;4973009;28;20225;-89
2023/08/16 21:20:41;;;;;;;1.83;1.73;;;23.10;97.30;;;;;;4974175;28;20210;-88
2023/08/16 21:23:06;;;;;;;2.33;2.13;;;23.10;97.30;;;;;;4973956;28;20255;-88
2023/08/16 21:25:32;;;;;;;3.73;3.53;;;23.10;97.30;;;;;;4974760;28;20706;-88
2023/08/16 21:27:57;;;;;;;2.23;1.60;;;23.10;97.30;;;;;;4973657;28;20213;-88
2023/08/16 21:30:23;;;;;;;2.30;1.60;;;23.10;97.30;;;;;;4973722;28;20181;-88
2023/08/16 21:32:48;;;;;;;2.17;1.73;;;23.10;97.30;;;;;;4991033;28;20621;-88
2023/08/16 21:35:15;;;;;;;1.90;1.80;;;23.10;97.30;;;;;;4973776;28;20178;-89
2023/08/16 21:37:41;;;;;;;1.67;1.50;;;23.10;97.30;;;;;;4973485;28;20302;-88
2023/08/16 21:40:07;;;;;;;4.03;2.87;;;23.10;97.30;;;;;;4973584;28;20499;-88
2023/08/16 21:42:32;;;;;;;3.50;2.20;;;23.00;97.30;;;;;;4973658;28;20190;-88
2023/08/16 21:44:58;;;;;;;1.43;1.37;;;23.00;97.30;;;;;;4973637;28;20243;-88
2023/08/16 21:47:23;;;;;;;1.87;1.80;;;23.00;97.30;;;;;;4973263;28;20268;-88
2023/08/16 21:49:49;;;;;;;2.50;1.83;;;23.00;97.30;;;;;;4973749;28;20178;-88
2023/08/16 21:52:14;;;;;;;2.53;2.33;;;22.90;97.30;;;;;;4990877;28;20603;-88
2023/08/16 21:54:40;;;;;;;2.73;1.87;;;22.90;97.30;;;;;;4973392;28;20182;-89
2023/08/16 21:57:05;;;;;;;1.23;1.23;;;22.90;97.30;;;;;;4970032;28;20248;-88
2023/08/16 21:59:31;;;;;;;4.40;1.77;;;22.90;97.30;;;;;;4969962;28;20191;-88
